sensor_id;sensor_type;location;lat;lon;timestamp;P1;durP1;ratioP1;P2;durP2;ratioP2
76745;SDS011;65671;49.976;20.038;2023-02-15T00:00:19;31.88;;;15.80;;
76745;SDS011;65671;49.976;20.038;2023-02-15T00:02:44;33.28;;;15.95;;
76745;SDS011;65671;49.976;20.038;2023-02-15T00:05:10;31.00;;;14.98;;
76745;SDS011;65671;49.976;20.038;2023-02-15T00:07:36;33.58;;;17.10;;
76745;SDS011;65671;49.976;20.038;2023-02-15T00:10:01;38.80;;;18.45;;
76745;SDS011;65671;49.976;20.038;2023-02-15T00:12:28;25.08;;;14.88;;
76745;SDS011;65671;49.976;20.038;2023-02-15T00:14:54;28.38;;;15.50;;
76745;SDS011;65671;49.976;20.038;2023-02-15T00:17:20;26.13;;;15.18;;
76745;SDS011;65671;49.976;20.038;2023-02-15T00:19:46;25.77;;;14.88;;
76745;SDS011;65671;49.976;20.038;2023-02-15T00:22:11;28.30;;;14.75;;
76745;SDS011;65671;49.976;20.038;2023-02-15T00:24:37;30.73;;;15.00;;
76745;SDS011;65671;49.976;20.038;2023-02-15T00:27:02;28.35;;;14.98;;
76745;SDS011;65671;49.976;20.038;2023-02-15T00:29:28;28.55;;;14.85;;
76745;SDS011;65671;49.976;20.038;2023-02-15T00:31:53;29.42;;;14.32;;
76745;SDS011;65671;49.976;20.038;2023-02-15T00:34:23;26.70;;;14.05;;
76745;SDS011;65671;49.976;20.038;2023-02-15T00:36:50;31.65;;;14.23;;
76745;SDS011;65671;49.976;20.038;2023-02-15T00:39:16;25.30;;;14.27;;
76745;SDS011;65671;49.976;20.038;2023-02-15T00:41:43;28.17;;;15.45;;
76745;SDS011;65671;49.976;20.038;2023-02-15T00:44:10;29.35;;;15.13;;
76745;SDS011;65671;49.976;20.038;2023-02-15T00:46:36;28.80;;;14.65;;
76745;SDS011;65671;49.976;20.038;2023-02-15T00:49:02;29.02;;;13.93;;
76745;SDS011;65671;49.976;20.038;2023-02-15T00:51:28;31.27;;;15.38;;
76745;SDS011;65671;49.976;20.038;2023-02-15T00:53:54;32.20;;;16.48;;
76745;SDS011;65671;49.976;20.038;2023-02-15T00:56:20;27.60;;;14.13;;
76745;SDS011;65671;49.976;20.038;2023-02-15T00:58:45;29.98;;;15.52;;
76745;SDS011;65671;49.976;20.038;2023-02-15T01:01:13;34.90;;;15.82;;
76745;SDS011;65671;49.976;20.038;2023-02-15T01:03:41;31.50;;;14.77;;
76745;SDS011;65671;49.976;20.038;2023-02-15T01:06:08;31.05;;;16.05;;
76745;SDS011;65671;49.976;20.038;2023-02-15T01:08:35;27.92;;;14.15;;
76745;SDS011;65671;49.976;20.038;2023-02-15T01:11:05;29.67;;;13.90;;
76745;SDS011;65671;49.976;20.038;2023-02-15T01:13:36;29.40;;;13.60;;
76745;SDS011;65671;49.976;20.038;2023-02-15T01:16:02;26.75;;;14.50;;
76745;SDS011;65671;49.976;20.038;2023-02-15T01:18:29;28.65;;;15.25;;
76745;SDS011;65671;49.976;20.038;2023-02-15T01:20:56;26.75;;;14.80;;
76745;SDS011;65671;49.976;20.038;2023-02-15T01:23:22;28.92;;;15.15;;
76745;SDS011;65671;49.976;20.038;2023-02-15T01:25:48;35.13;;;16.58;;
76745;SDS011;65671;49.976;20.038;2023-02-15T01:28:14;32.13;;;15.63;;
76745;SDS011;65671;49.976;20.038;2023-02-15T01:30:39;30.10;;;15.15;;
76745;SDS011;65671;49.976;20.038;2023-02-15T01:33:05;31.83;;;17.08;;
76745;SDS011;65671;49.976;20.038;2023-02-15T01:35:30;32.13;;;15.13;;
76745;SDS011;65671;49.976;20.038;2023-02-15T01:37:56;34.63;;;16.85;;
76745;SDS011;65671;49.976;20.038;2023-02-15T01:40:22;28.95;;;15.20;;
76745;SDS011;65671;49.976;20.038;2023-02-15T01:42:52;29.98;;;15.48;;
76745;SDS011;65671;49.976;20.038;2023-02-15T01:45:21;33.13;;;16.08;;
76745;SDS011;65671;49.976;20.038;2023-02-15T01:53:19;30.23;;;14.65;;
76745;SDS011;65671;49.976;20.038;2023-02-15T01:56:09;37.30;;;19.55;;
76745;SDS011;65671;49.976;20.038;2023-02-15T01:58:38;28.85;;;15.07;;
76745;SDS011;65671;49.976;20.038;2023-02-15T02:01:04;33.97;;;16.48;;
76745;SDS011;65671;49.976;20.038;2023-02-15T02:03:56;28.92;;;16.20;;
76745;SDS011;65671;49.976;20.038;2023-02-15T02:06:29;32.85;;;15.52;;
76745;SDS011;65671;49.976;20.038;2023-02-15T02:08:56;31.90;;;15.88;;
76745;SDS011;65671;49.976;20.038;2023-02-15T02:11:22;28.23;;;14.32;;
76745;SDS011;65671;49.976;20.038;2023-02-15T02:13:48;28.48;;;15.43;;
76745;SDS011;65671;49.976;20.038;2023-02-15T02:16:20;28.65;;;13.95;;
76745;SDS011;65671;49.976;20.038;2023-02-15T02:25:29;30.55;;;14.65;;
76745;SDS011;65671;49.976;20.038;2023-02-15T02:31:40;34.22;;;16.65;;
76745;SDS011;65671;49.976;20.038;2023-02-15T02:36:48;33.60;;;16.90;;
76745;SDS011;65671;49.976;20.038;2023-02-15T02:44:49;34.13;;;16.27;;
76745;SDS011;65671;49.976;20.038;2023-02-15T02:49:58;27.30;;;14.38;;
76745;SDS011;65671;49.976;20.038;2023-02-15T02:55:13;29.70;;;15.48;;
76745;SDS011;65671;49.976;20.038;2023-02-15T03:00:36;30.17;;;14.90;;
76745;SDS011;65671;49.976;20.038;2023-02-15T03:05:54;28.42;;;15.40;;
76745;SDS011;65671;49.976;20.038;2023-02-15T03:08:25;28.58;;;15.55;;
76745;SDS011;65671;49.976;20.038;2023-02-15T03:10:58;29.20;;;15.05;;
76745;SDS011;65671;49.976;20.038;2023-02-15T03:13:25;34.58;;;14.98;;
76745;SDS011;65671;49.976;20.038;2023-02-15T03:15:52;34.58;;;17.05;;
76745;SDS011;65671;49.976;20.038;2023-02-15T03:18:40;33.65;;;16.50;;
76745;SDS011;65671;49.976;20.038;2023-02-15T03:21:19;29.05;;;14.77;;
76745;SDS011;65671;49.976;20.038;2023-02-15T03:23:49;36.85;;;17.83;;
76745;SDS011;65671;49.976;20.038;2023-02-15T03:26:20;29.13;;;15.60;;
76745;SDS011;65671;49.976;20.038;2023-02-15T03:28:48;29.27;;;14.43;;
76745;SDS011;65671;49.976;20.038;2023-02-15T03:31:18;29.15;;;15.07;;
76745;SDS011;65671;49.976;20.038;2023-02-15T03:33:53;28.48;;;14.27;;
76745;SDS011;65671;49.976;20.038;2023-02-15T03:36:26;26.25;;;14.07;;
76745;SDS011;65671;49.976;20.038;2023-02-15T03:41:39;22.98;;;13.23;;
76745;SDS011;65671;49.976;20.038;2023-02-15T03:44:15;26.13;;;14.43;;
76745;SDS011;65671;49.976;20.038;2023-02-15T03:47:07;29.00;;;14.32;;
76745;SDS011;65671;49.976;20.038;2023-02-15T03:49:44;32.92;;;15.48;;
76745;SDS011;65671;49.976;20.038;2023-02-15T03:52:17;30.50;;;14.77;;
76745;SDS011;65671;49.976;20.038;2023-02-15T03:54:45;30.10;;;14.93;;
76745;SDS011;65671;49.976;20.038;2023-02-15T04:00:03;30.95;;;14.85;;
76745;SDS011;65671;49.976;20.038;2023-02-15T04:05:31;31.17;;;14.10;;
76745;SDS011;65671;49.976;20.038;2023-02-15T04:07:56;28.17;;;13.65;;
76745;SDS011;65671;49.976;20.038;2023-02-15T04:10:22;26.25;;;14.35;;
76745;SDS011;65671;49.976;20.038;2023-02-15T04:13:06;34.63;;;15.95;;
76745;SDS011;65671;49.976;20.038;2023-02-15T04:15:32;31.70;;;16.73;;
76745;SDS011;65671;49.976;20.038;2023-02-15T04:18:15;33.67;;;15.23;;
76745;SDS011;65671;49.976;20.038;2023-02-15T04:23:30;33.22;;;16.10;;
76745;SDS011;65671;49.976;20.038;2023-02-15T04:26:14;28.05;;;14.05;;
76745;SDS011;65671;49.976;20.038;2023-02-15T04:28:39;27.65;;;14.10;;
76745;SDS011;65671;49.976;20.038;2023-02-15T04:31:05;28.02;;;14.88;;
76745;SDS011;65671;49.976;20.038;2023-02-15T04:33:31;28.65;;;14.45;;
76745;SDS011;65671;49.976;20.038;2023-02-15T04:35:57;33.13;;;15.18;;
76745;SDS011;65671;49.976;20.038;2023-02-15T04:38:22;31.45;;;14.30;;
76745;SDS011;65671;49.976;20.038;2023-02-15T04:40:51;28.23;;;15.43;;
76745;SDS011;65671;49.976;20.038;2023-02-15T04:43:20;29.10;;;15.75;;
76745;SDS011;65671;49.976;20.038;2023-02-15T04:45:49;26.98;;;15.93;;
76745;SDS011;65671;49.976;20.038;2023-02-15T04:48:16;30.75;;;16.13;;
76745;SDS011;65671;49.976;20.038;2023-02-15T04:50:43;30.05;;;15.35;;
76745;SDS011;65671;49.976;20.038;2023-02-15T04:53:09;28.13;;;15.07;;
76745;SDS011;65671;49.976;20.038;2023-02-15T04:55:35;31.10;;;14.50;;
76745;SDS011;65671;49.976;20.038;2023-02-15T04:58:01;29.25;;;16.00;;
76745;SDS011;65671;49.976;20.038;2023-02-15T05:00:26;34.97;;;15.57;;
76745;SDS011;65671;49.976;20.038;2023-02-15T05:02:52;31.17;;;15.15;;
76745;SDS011;65671;49.976;20.038;2023-02-15T05:05:18;31.98;;;15.88;;
76745;SDS011;65671;49.976;20.038;2023-02-15T05:07:43;27.73;;;15.18;;
76745;SDS011;65671;49.976;20.038;2023-02-15T05:10:09;29.63;;;15.57;;
76745;SDS011;65671;49.976;20.038;2023-02-15T05:12:35;29.25;;;14.95;;
76745;SDS011;65671;49.976;20.038;2023-02-15T05:15:02;29.50;;;15.77;;
76745;SDS011;65671;49.976;20.038;2023-02-15T05:17:27;32.72;;;15.50;;
76745;SDS011;65671;49.976;20.038;2023-02-15T05:19:53;28.48;;;14.35;;
76745;SDS011;65671;49.976;20.038;2023-02-15T05:22:19;29.48;;;15.32;;
76745;SDS011;65671;49.976;20.038;2023-02-15T05:24:44;30.83;;;15.30;;
76745;SDS011;65671;49.976;20.038;2023-02-15T05:27:29;29.65;;;14.43;;
76745;SDS011;65671;49.976;20.038;2023-02-15T05:30:13;29.67;;;14.82;;
76745;SDS011;65671;49.976;20.038;2023-02-15T05:32:39;28.65;;;15.50;;
76745;SDS011;65671;49.976;20.038;2023-02-15T05:37:31;27.98;;;14.43;;
76745;SDS011;65671;49.976;20.038;2023-02-15T05:39:57;27.27;;;14.48;;
76745;SDS011;65671;49.976;20.038;2023-02-15T05:42:23;32.97;;;15.65;;
76745;SDS011;65671;49.976;20.038;2023-02-15T05:44:48;30.05;;;15.50;;
76745;SDS011;65671;49.976;20.038;2023-02-15T05:47:14;31.48;;;16.52;;
76745;SDS011;65671;49.976;20.038;2023-02-15T05:49:40;30.98;;;15.82;;
76745;SDS011;65671;49.976;20.038;2023-02-15T05:52:05;28.10;;;14.30;;
76745;SDS011;65671;49.976;20.038;2023-02-15T05:54:31;30.17;;;15.38;;
76745;SDS011;65671;49.976;20.038;2023-02-15T05:56:56;32.05;;;16.85;;
76745;SDS011;65671;49.976;20.038;2023-02-15T05:59:23;36.40;;;18.23;;
76745;SDS011;65671;49.976;20.038;2023-02-15T06:01:48;34.40;;;15.90;;
76745;SDS011;65671;49.976;20.038;2023-02-15T06:04:14;29.20;;;15.05;;
76745;SDS011;65671;49.976;20.038;2023-02-15T06:06:39;31.02;;;14.30;;
76745;SDS011;65671;49.976;20.038;2023-02-15T06:09:05;32.17;;;16.98;;
76745;SDS011;65671;49.976;20.038;2023-02-15T06:11:31;30.58;;;16.70;;
76745;SDS011;65671;49.976;20.038;2023-02-15T06:13:56;39.55;;;20.95;;
76745;SDS011;65671;49.976;20.038;2023-02-15T06:16:22;33.85;;;17.27;;
76745;SDS011;65671;49.976;20.038;2023-02-15T06:18:47;31.58;;;15.32;;
76745;SDS011;65671;49.976;20.038;2023-02-15T06:21:13;30.48;;;16.02;;
76745;SDS011;65671;49.976;20.038;2023-02-15T06:23:39;32.03;;;15.80;;
76745;SDS011;65671;49.976;20.038;2023-02-15T06:26:05;32.28;;;17.13;;
76745;SDS011;65671;49.976;20.038;2023-02-15T06:30:56;27.30;;;14.57;;
76745;SDS011;65671;49.976;20.038;2023-02-15T06:33:22;27.30;;;12.90;;
76745;SDS011;65671;49.976;20.038;2023-02-15T06:35:48;29.60;;;13.93;;
76745;SDS011;65671;49.976;20.038;2023-02-15T06:40:39;29.30;;;14.68;;
76745;SDS011;65671;49.976;20.038;2023-02-15T06:43:05;29.15;;;15.35;;
76745;SDS011;65671;49.976;20.038;2023-02-15T06:45:31;29.65;;;15.05;;
76745;SDS011;65671;49.976;20.038;2023-02-15T06:47:56;29.27;;;15.25;;
76745;SDS011;65671;49.976;20.038;2023-02-15T06:50:22;24.15;;;12.35;;
76745;SDS011;65671;49.976;20.038;2023-02-15T06:55:12;25.93;;;13.43;;
76745;SDS011;65671;49.976;20.038;2023-02-15T06:57:38;27.05;;;13.52;;
76745;SDS011;65671;49.976;20.038;2023-02-15T07:00:04;26.15;;;12.52;;
76745;SDS011;65671;49.976;20.038;2023-02-15T07:02:31;24.92;;;12.38;;
76745;SDS011;65671;49.976;20.038;2023-02-15T07:07:22;22.67;;;11.07;;
76745;SDS011;65671;49.976;20.038;2023-02-15T07:09:47;24.55;;;11.77;;
76745;SDS011;65671;49.976;20.038;2023-02-15T07:12:13;22.08;;;11.52;;
76745;SDS011;65671;49.976;20.038;2023-02-15T07:14:57;18.90;;;10.90;;
76745;SDS011;65671;49.976;20.038;2023-02-15T07:19:49;18.70;;;10.25;;
76745;SDS011;65671;49.976;20.038;2023-02-15T07:22:14;21.52;;;11.70;;
76745;SDS011;65671;49.976;20.038;2023-02-15T07:27:06;20.88;;;10.70;;
76745;SDS011;65671;49.976;20.038;2023-02-15T07:29:32;22.05;;;11.05;;
76745;SDS011;65671;49.976;20.038;2023-02-15T07:34:23;21.50;;;10.97;;
76745;SDS011;65671;49.976;20.038;2023-02-15T07:39:15;20.95;;;10.52;;
76745;SDS011;65671;49.976;20.038;2023-02-15T07:44:06;18.17;;;9.50;;
76745;SDS011;65671;49.976;20.038;2023-02-15T07:46:38;23.38;;;12.20;;
76745;SDS011;65671;49.976;20.038;2023-02-15T07:51:30;22.77;;;11.30;;
76745;SDS011;65671;49.976;20.038;2023-02-15T07:56:21;28.13;;;10.55;;
76745;SDS011;65671;49.976;20.038;2023-02-15T08:01:25;20.67;;;10.88;;
76745;SDS011;65671;49.976;20.038;2023-02-15T08:03:53;22.77;;;11.07;;
76745;SDS011;65671;49.976;20.038;2023-02-15T08:06:19;22.67;;;10.27;;
76745;SDS011;65671;49.976;20.038;2023-02-15T08:08:46;25.10;;;11.68;;
76745;SDS011;65671;49.976;20.038;2023-02-15T08:14:08;26.67;;;11.75;;
76745;SDS011;65671;49.976;20.038;2023-02-15T08:19:02;20.85;;;11.07;;
76745;SDS011;65671;49.976;20.038;2023-02-15T08:21:30;21.15;;;11.20;;
76745;SDS011;65671;49.976;20.038;2023-02-15T08:23:57;21.05;;;11.27;;
76745;SDS011;65671;49.976;20.038;2023-02-15T08:26:23;19.80;;;11.95;;
76745;SDS011;65671;49.976;20.038;2023-02-15T08:28:51;21.13;;;10.60;;
76745;SDS011;65671;49.976;20.038;2023-02-15T08:31:17;23.58;;;11.40;;
76745;SDS011;65671;49.976;20.038;2023-02-15T08:33:44;25.73;;;12.45;;
76745;SDS011;65671;49.976;20.038;2023-02-15T08:36:15;19.58;;;11.05;;
76745;SDS011;65671;49.976;20.038;2023-02-15T08:38:43;23.90;;;11.50;;
76745;SDS011;65671;49.976;20.038;2023-02-15T08:41:10;26.27;;;12.93;;
76745;SDS011;65671;49.976;20.038;2023-02-15T08:43:38;21.48;;;11.32;;
76745;SDS011;65671;49.976;20.038;2023-02-15T08:48:30;20.73;;;11.45;;
76745;SDS011;65671;49.976;20.038;2023-02-15T08:53:21;27.37;;;12.13;;
76745;SDS011;65671;49.976;20.038;2023-02-15T08:55:49;24.63;;;12.52;;
76745;SDS011;65671;49.976;20.038;2023-02-15T08:58:20;27.55;;;13.18;;
76745;SDS011;65671;49.976;20.038;2023-02-15T09:00:46;25.15;;;11.75;;
76745;SDS011;65671;49.976;20.038;2023-02-15T09:03:11;20.58;;;11.65;;
76745;SDS011;65671;49.976;20.038;2023-02-15T09:05:37;23.05;;;12.30;;
76745;SDS011;65671;49.976;20.038;2023-02-15T09:08:02;26.20;;;13.00;;
76745;SDS011;65671;49.976;20.038;2023-02-15T09:10:28;24.75;;;12.43;;
76745;SDS011;65671;49.976;20.038;2023-02-15T09:12:53;23.95;;;12.27;;
76745;SDS011;65671;49.976;20.038;2023-02-15T09:15:19;23.90;;;12.73;;
76745;SDS011;65671;49.976;20.038;2023-02-15T09:17:44;24.77;;;13.55;;
76745;SDS011;65671;49.976;20.038;2023-02-15T09:20:10;26.38;;;14.13;;
76745;SDS011;65671;49.976;20.038;2023-02-15T09:22:36;31.30;;;14.48;;
76745;SDS011;65671;49.976;20.038;2023-02-15T09:25:02;31.52;;;14.77;;
76745;SDS011;65671;49.976;20.038;2023-02-15T09:27:27;28.55;;;15.27;;
76745;SDS011;65671;49.976;20.038;2023-02-15T09:29:54;27.90;;;14.48;;
76745;SDS011;65671;49.976;20.038;2023-02-15T09:32:20;28.35;;;15.00;;
76745;SDS011;65671;49.976;20.038;2023-02-15T09:34:47;30.65;;;15.30;;
76745;SDS011;65671;49.976;20.038;2023-02-15T09:37:13;33.38;;;16.73;;
76745;SDS011;65671;49.976;20.038;2023-02-15T09:39:40;31.98;;;17.02;;
76745;SDS011;65671;49.976;20.038;2023-02-15T09:48:15;30.02;;;14.63;;
76745;SDS011;65671;49.976;20.038;2023-02-15T09:53:38;41.33;;;18.52;;
76745;SDS011;65671;49.976;20.038;2023-02-15T09:56:30;29.58;;;15.45;;
76745;SDS011;65671;49.976;20.038;2023-02-15T10:01:46;31.42;;;16.80;;
76745;SDS011;65671;49.976;20.038;2023-02-15T10:19:59;30.05;;;15.68;;
76745;SDS011;65671;49.976;20.038;2023-02-15T10:26:04;32.38;;;16.17;;
76745;SDS011;65671;49.976;20.038;2023-02-15T10:34:19;31.27;;;16.58;;
76745;SDS011;65671;49.976;20.038;2023-02-15T11:01:37;34.45;;;17.35;;
76745;SDS011;65671;49.976;20.038;2023-02-15T11:07:08;35.65;;;18.00;;
76745;SDS011;65671;49.976;20.038;2023-02-15T11:12:50;36.60;;;17.02;;
76745;SDS011;65671;49.976;20.038;2023-02-15T11:23:25;35.55;;;18.00;;
76745;SDS011;65671;49.976;20.038;2023-02-15T11:25:54;34.95;;;18.40;;
76745;SDS011;65671;49.976;20.038;2023-02-15T11:28:39;34.20;;;17.85;;
76745;SDS011;65671;49.976;20.038;2023-02-15T11:31:17;37.15;;;19.33;;
76745;SDS011;65671;49.976;20.038;2023-02-15T11:33:48;38.47;;;18.55;;
76745;SDS011;65671;49.976;20.038;2023-02-15T11:36:51;38.15;;;18.33;;
76745;SDS011;65671;49.976;20.038;2023-02-15T11:39:11;41.03;;;18.95;;
76745;SDS011;65671;49.976;20.038;2023-02-15T11:41:41;35.47;;;19.35;;
76745;SDS011;65671;49.976;20.038;2023-02-15T11:44:19;36.97;;;20.05;;
76745;SDS011;65671;49.976;20.038;2023-02-15T11:46:49;35.03;;;19.20;;
76745;SDS011;65671;49.976;20.038;2023-02-15T11:49:36;37.38;;;19.75;;
76745;SDS011;65671;49.976;20.038;2023-02-15T11:52:04;39.38;;;20.52;;
76745;SDS011;65671;49.976;20.038;2023-02-15T11:54:36;39.63;;;19.95;;
76745;SDS011;65671;49.976;20.038;2023-02-15T11:57:15;37.47;;;18.08;;
76745;SDS011;65671;49.976;20.038;2023-02-15T12:00:50;41.15;;;18.48;;
76745;SDS011;65671;49.976;20.038;2023-02-15T12:03:01;32.42;;;17.40;;
76745;SDS011;65671;49.976;20.038;2023-02-15T12:05:49;33.78;;;18.08;;
76745;SDS011;65671;49.976;20.038;2023-02-15T12:08:20;36.10;;;18.08;;
76745;SDS011;65671;49.976;20.038;2023-02-15T12:10:57;33.13;;;17.88;;
76745;SDS011;65671;49.976;20.038;2023-02-15T12:13:28;33.47;;;17.27;;
76745;SDS011;65671;49.976;20.038;2023-02-15T12:15:56;36.55;;;18.55;;
76745;SDS011;65671;49.976;20.038;2023-02-15T12:20:52;39.75;;;19.85;;
76745;SDS011;65671;49.976;20.038;2023-02-15T12:23:24;32.15;;;18.05;;
76745;SDS011;65671;49.976;20.038;2023-02-15T12:25:53;35.05;;;18.20;;
76745;SDS011;65671;49.976;20.038;2023-02-15T12:30:57;33.30;;;16.80;;
76745;SDS011;65671;49.976;20.038;2023-02-15T12:33:34;34.67;;;17.58;;
76745;SDS011;65671;49.976;20.038;2023-02-15T12:36:44;32.83;;;15.77;;
76745;SDS011;65671;49.976;20.038;2023-02-15T12:41:37;41.55;;;18.23;;
76745;SDS011;65671;49.976;20.038;2023-02-15T12:44:17;31.60;;;16.67;;
76745;SDS011;65671;49.976;20.038;2023-02-15T12:49:27;30.73;;;15.48;;
76745;SDS011;65671;49.976;20.038;2023-02-15T12:51:56;32.88;;;16.98;;
76745;SDS011;65671;49.976;20.038;2023-02-15T12:54:33;29.33;;;15.00;;
76745;SDS011;65671;49.976;20.038;2023-02-15T12:57:12;34.65;;;17.40;;
76745;SDS011;65671;49.976;20.038;2023-02-15T13:00:24;33.00;;;16.67;;
76745;SDS011;65671;49.976;20.038;2023-02-15T13:04:56;31.73;;;16.23;;
76745;SDS011;65671;49.976;20.038;2023-02-15T13:07:30;34.22;;;16.40;;
76745;SDS011;65671;49.976;20.038;2023-02-15T13:09:57;31.15;;;17.48;;
76745;SDS011;65671;49.976;20.038;2023-02-15T13:12:25;32.83;;;16.10;;
76745;SDS011;65671;49.976;20.038;2023-02-15T13:14:59;29.77;;;16.45;;
76745;SDS011;65671;49.976;20.038;2023-02-15T13:17:28;34.30;;;17.77;;
76745;SDS011;65671;49.976;20.038;2023-02-15T13:20:09;35.10;;;17.25;;
76745;SDS011;65671;49.976;20.038;2023-02-15T13:22:44;35.50;;;17.10;;
76745;SDS011;65671;49.976;20.038;2023-02-15T13:25:14;40.38;;;16.90;;
76745;SDS011;65671;49.976;20.038;2023-02-15T13:30:20;32.90;;;17.17;;
76745;SDS011;65671;49.976;20.038;2023-02-15T13:32:51;32.65;;;16.75;;
76745;SDS011;65671;49.976;20.038;2023-02-15T13:35:21;31.98;;;15.00;;
76745;SDS011;65671;49.976;20.038;2023-02-15T13:38:00;32.15;;;15.82;;
76745;SDS011;65671;49.976;20.038;2023-02-15T13:40:46;31.50;;;15.80;;
76745;SDS011;65671;49.976;20.038;2023-02-15T13:43:33;28.73;;;15.27;;
76745;SDS011;65671;49.976;20.038;2023-02-15T13:54:03;26.13;;;14.93;;
76745;SDS011;65671;49.976;20.038;2023-02-15T13:59:34;27.65;;;14.90;;
76745;SDS011;65671;49.976;20.038;2023-02-15T14:13:50;27.75;;;14.63;;
76745;SDS011;65671;49.976;20.038;2023-02-15T14:24:37;28.13;;;14.57;;
76745;SDS011;65671;49.976;20.038;2023-02-15T14:32:26;28.17;;;14.80;;
76745;SDS011;65671;49.976;20.038;2023-02-15T14:34:54;29.65;;;14.65;;
76745;SDS011;65671;49.976;20.038;2023-02-15T14:37:26;34.40;;;14.75;;
76745;SDS011;65671;49.976;20.038;2023-02-15T14:40:02;25.50;;;13.45;;
76745;SDS011;65671;49.976;20.038;2023-02-15T14:48:16;24.90;;;13.60;;
76745;SDS011;65671;49.976;20.038;2023-02-15T14:51:25;28.17;;;14.88;;
76745;SDS011;65671;49.976;20.038;2023-02-15T14:54:08;24.73;;;13.65;;
76745;SDS011;65671;49.976;20.038;2023-02-15T14:56:34;35.78;;;17.02;;
76745;SDS011;65671;49.976;20.038;2023-02-15T14:59:08;24.13;;;14.15;;
76745;SDS011;65671;49.976;20.038;2023-02-15T15:01:37;29.00;;;14.70;;
76745;SDS011;65671;49.976;20.038;2023-02-15T15:04:09;25.40;;;15.13;;
76745;SDS011;65671;49.976;20.038;2023-02-15T15:06:36;27.77;;;14.63;;
76745;SDS011;65671;49.976;20.038;2023-02-15T15:09:25;31.77;;;15.07;;
76745;SDS011;65671;49.976;20.038;2023-02-15T15:11:53;31.73;;;16.05;;
76745;SDS011;65671;49.976;20.038;2023-02-15T15:19:59;37.80;;;19.58;;
76745;SDS011;65671;49.976;20.038;2023-02-15T15:22:39;34.47;;;19.23;;
76745;SDS011;65671;49.976;20.038;2023-02-15T15:25:11;39.15;;;20.48;;
76745;SDS011;65671;49.976;20.038;2023-02-15T15:29:17;37.33;;;18.27;;
76745;SDS011;65671;49.976;20.038;2023-02-15T15:34:03;31.40;;;17.38;;
76745;SDS011;65671;49.976;20.038;2023-02-15T15:45:08;36.97;;;19.20;;
76745;SDS011;65671;49.976;20.038;2023-02-15T15:47:45;38.42;;;19.02;;
76745;SDS011;65671;49.976;20.038;2023-02-15T15:50:31;36.20;;;18.25;;
76745;SDS011;65671;49.976;20.038;2023-02-15T15:52:58;34.88;;;19.02;;
76745;SDS011;65671;49.976;20.038;2023-02-15T15:55:27;36.60;;;18.50;;
76745;SDS011;65671;49.976;20.038;2023-02-15T15:57:59;36.97;;;19.40;;
76745;SDS011;65671;49.976;20.038;2023-02-15T16:00:31;37.78;;;19.27;;
76745;SDS011;65671;49.976;20.038;2023-02-15T16:03:05;38.38;;;18.80;;
76745;SDS011;65671;49.976;20.038;2023-02-15T16:05:34;39.35;;;18.67;;
76745;SDS011;65671;49.976;20.038;2023-02-15T16:08:01;37.65;;;18.52;;
76745;SDS011;65671;49.976;20.038;2023-02-15T16:10:27;42.65;;;20.27;;
76745;SDS011;65671;49.976;20.038;2023-02-15T16:12:57;45.28;;;21.50;;
76745;SDS011;65671;49.976;20.038;2023-02-15T16:15:25;42.97;;;20.63;;
76745;SDS011;65671;49.976;20.038;2023-02-15T16:18:17;41.85;;;21.20;;
76745;SDS011;65671;49.976;20.038;2023-02-15T16:20:59;44.53;;;21.50;;
76745;SDS011;65671;49.976;20.038;2023-02-15T16:23:39;44.70;;;21.48;;
76745;SDS011;65671;49.976;20.038;2023-02-15T16:27:28;47.42;;;23.17;;
76745;SDS011;65671;49.976;20.038;2023-02-15T16:29:36;49.47;;;25.35;;
76745;SDS011;65671;49.976;20.038;2023-02-15T16:32:06;48.83;;;24.40;;
76745;SDS011;65671;49.976;20.038;2023-02-15T16:34:59;48.40;;;24.80;;
76745;SDS011;65671;49.976;20.038;2023-02-15T16:37:30;53.08;;;25.60;;
76745;SDS011;65671;49.976;20.038;2023-02-15T16:39:58;54.75;;;27.08;;
76745;SDS011;65671;49.976;20.038;2023-02-15T16:42:24;59.35;;;26.05;;
76745;SDS011;65671;49.976;20.038;2023-02-15T16:45:11;52.42;;;26.58;;
76745;SDS011;65671;49.976;20.038;2023-02-15T16:47:43;53.53;;;24.92;;
76745;SDS011;65671;49.976;20.038;2023-02-15T16:50:22;51.97;;;25.92;;
76745;SDS011;65671;49.976;20.038;2023-02-15T16:52:52;52.97;;;26.33;;
76745;SDS011;65671;49.976;20.038;2023-02-15T16:55:25;62.40;;;26.83;;
76745;SDS011;65671;49.976;20.038;2023-02-15T16:57:59;55.63;;;26.10;;
76745;SDS011;65671;49.976;20.038;2023-02-15T17:00:34;59.47;;;28.60;;
76745;SDS011;65671;49.976;20.038;2023-02-15T17:03:06;60.70;;;28.73;;
76745;SDS011;65671;49.976;20.038;2023-02-15T17:05:49;55.38;;;27.10;;
76745;SDS011;65671;49.976;20.038;2023-02-15T17:13:37;61.67;;;30.42;;
76745;SDS011;65671;49.976;20.038;2023-02-15T17:18:32;66.45;;;32.17;;
76745;SDS011;65671;49.976;20.038;2023-02-15T17:21:10;59.92;;;32.75;;
76745;SDS011;65671;49.976;20.038;2023-02-15T17:23:43;63.50;;;27.27;;
76745;SDS011;65671;49.976;20.038;2023-02-15T17:26:12;71.47;;;33.58;;
76745;SDS011;65671;49.976;20.038;2023-02-15T17:28:43;60.03;;;27.95;;
76745;SDS011;65671;49.976;20.038;2023-02-15T17:31:24;53.85;;;25.33;;
76745;SDS011;65671;49.976;20.038;2023-02-15T17:33:53;53.53;;;26.80;;
76745;SDS011;65671;49.976;20.038;2023-02-15T17:36:21;53.53;;;27.92;;
76745;SDS011;65671;49.976;20.038;2023-02-15T17:41:27;57.50;;;29.15;;
76745;SDS011;65671;49.976;20.038;2023-02-15T17:43:54;62.15;;;30.77;;
76745;SDS011;65671;49.976;20.038;2023-02-15T17:46:19;60.38;;;30.73;;
76745;SDS011;65671;49.976;20.038;2023-02-15T17:48:49;63.00;;;30.48;;
76745;SDS011;65671;49.976;20.038;2023-02-15T17:51:16;61.50;;;32.08;;
76745;SDS011;65671;49.976;20.038;2023-02-15T17:53:44;63.42;;;31.35;;
76745;SDS011;65671;49.976;20.038;2023-02-15T17:56:30;68.63;;;32.30;;
76745;SDS011;65671;49.976;20.038;2023-02-15T17:58:56;71.95;;;35.38;;
76745;SDS011;65671;49.976;20.038;2023-02-15T18:01:21;71.90;;;35.00;;
76745;SDS011;65671;49.976;20.038;2023-02-15T18:04:12;76.97;;;35.60;;
76745;SDS011;65671;49.976;20.038;2023-02-15T18:06:57;77.53;;;39.03;;
76745;SDS011;65671;49.976;20.038;2023-02-15T18:09:42;71.68;;;33.25;;
76745;SDS011;65671;49.976;20.038;2023-02-15T18:12:27;66.72;;;32.17;;
76745;SDS011;65671;49.976;20.038;2023-02-15T18:14:55;56.15;;;26.20;;
76745;SDS011;65671;49.976;20.038;2023-02-15T18:17:23;56.30;;;28.15;;
76745;SDS011;65671;49.976;20.038;2023-02-15T18:20:23;63.42;;;31.88;;
76745;SDS011;65671;49.976;20.038;2023-02-15T18:22:58;64.50;;;28.95;;
76745;SDS011;65671;49.976;20.038;2023-02-15T18:25:26;67.10;;;31.55;;
76745;SDS011;65671;49.976;20.038;2023-02-15T18:27:51;59.88;;;28.27;;
76745;SDS011;65671;49.976;20.038;2023-02-15T18:30:18;67.35;;;31.25;;
76745;SDS011;65671;49.976;20.038;2023-02-15T18:32:46;59.85;;;29.00;;
76745;SDS011;65671;49.976;20.038;2023-02-15T18:35:15;52.08;;;25.90;;
76745;SDS011;65671;49.976;20.038;2023-02-15T18:37:43;62.53;;;30.10;;